KRST/RST METAR and TAF weather

Enter ICAO airport designator
Station Type Date Time Source
KRST METAR 2022/11/30 17:51 UTC NOAA

KRST 301751Z 28021G34KT 3SM BLSN OVC017 M09/M13 A3004 RMK AO2 PK WND 29036/1717 TWR VIS 10 $


Station Type Date Time Source
KRST Decoded METAR 2022/11/30 17:51 UTC NOAA

ROCHESTER INTERNATIONAL AIRPORT , MN, United States (KRST) 43-54N 092-30W 403M
Nov 30, 2022 - 12:51 PM EST / 2022.11.30 1751 UTC
Wind: from the W (280 degrees) at 24 MPH (21 KT) gusting to 39 MPH (34 KT):0
Visibility: 3 mile(s):0
Sky conditions: overcast
Weather: blowing snow
Temperature: 15 F (-9 C)
Windchill: -4 F (-20 C):1
Dew Point: 8 F (-13 C)
Relative Humidity: 72%
Pressure (altimeter): 30.04 in. Hg (1017 hPa)
ob: KRST 301751Z 28021G34KT 3SM BLSN OVC017 M09/M13 A3004 RMK AO2 PK WND 29036/1717 TWR VIS 10
cycle: 18

Station Type Date Time Source
KRST TAF 2022/11/30 18:30 UTC NOAA

TAF KRST 301729Z 3018/0118 28020G35KT P6SM -SN BKN020
FM302000 28018G32KT P6SM SCT030
FM010300 28009KT P6SM SKC
FM011100 18011KT P6SM SCT250
FM011500 17015G28KT P6SM FEW250

Example: see airport list